Colby, KS (67701)

11:58 AM CST on December 07, 2016 (GMT -0600)
630 Woofter Ave | | Change Station
Active Advisory: Special Statement Active Notice: Public Information Statement

Elev 3186 ft 39.40 °N, 101.06 °W | Updated 23 seconds ago

Light Snow
Light Snow
15.9 °F
Feels Like 16 °F
N
2.0
Wind Variable Wind from North
Gusts 3.0 mph

Today
High -- | Low -- °F
--% Chance of Precip.
Yesterday
High -- | Low -- °F
Precip. -- in
Pressure 30.30 in
Visibility 2.0 miles
Clouds Scattered Clouds 1200 ft
Mostly Cloudy 1900 ft
Overcast 2600 ft
Windchill 16 °F
Dew Point 12 °F
Humidity 83%
Rainfall 0.00 in
Snow Depth Not available.
7:51 AM 5:20 PM
First Quarter, 54% visible
METAR KCBK 071735Z AUTO 01009KT 2SM -SN SCT012 BKN019 OVC026 M07/M09 A3030 RMK AO2
Pressure 30.30 in
Visibility 2.0 miles
Clouds Scattered Clouds 1200 ft
Mostly Cloudy 1900 ft
Overcast 2600 ft
Windchill 16 °F
Dew Point 12 °F
Humidity 83%
Rainfall 0.00 in
Snow Depth Not available.
7:51 AM 5:20 PM
First Quarter, 54% visible
METAR KCBK 071735Z AUTO 01009KT 2SM -SN SCT012 BKN019 OVC026 M07/M09 A3030 RMK AO2

10-Day Weather Forecast

Almanac

Astronomy

Dec. 07, 2016 Rise Set
Actual Time
Civil Twilight
Nautical Twilight
Astronomical Twilight
Moon
Length of Visible Light
Length of Day
Tomorrow will be .
, % of the Moon is Illuminated

Today's Extremes

State Highs State Lows

Community

WunderPhotos

Upload Photos

1,956,156 photos uploaded!

WunderBlog® & News

Nearby

Air Quality

  Air Quality AQ Index Pollutant
Not available.

Snow Depth

Station Depth Elevation

Earthquake Activity

City Distance Mag. Time & Date
Minimum magnitude displayed is 2.5.

Coastal Water Temperatures

Place Temperature

Stations

Nearby Weather Stations

Station Location Temp. Windchill Dew Point Humidity Wind Precip. Elev Updated Type
                   

Watches & Warnings

Special Statement
Issued: 9:19 AM CST Dec. 7, 2016 – National Weather Service

Light snow will continue across the area through the morning.
Accumulations of 1 to 3 inches can be expected. Some patchy
blowing snow with visibilities reduced to less than a mile are
also likely.

Some minor travel concerns are being reported. Roads are snow
packed and slick in some places.

If you are traveling, take it slow, leave plenty of room and dress
warm. Temperatures are in the teens with wind chills around zero.


819 am MST Wed Dec 7 2016 /919 am CST Wed Dec 7 2016/

Light snow will continue across the area through the morning.
Accumulations of 1 to 3 inches can be expected. Some patchy
blowing snow with visibilities reduced to less than a mile are
also likely.

Some minor travel concerns are being reported. Roads are snow
packed and slick in some places.

If you are traveling, take it slow, leave plenty of room and dress
warm. Temperatures are in the teens with wind chills around zero.